Yellowstone National Park, WY (82190)

1:03 AM MST on December 26, 2014 (GMT -0700)
HADS FIREHOLE RIVER AT OLD FAITHFUL A WY US USGS | Change Station
CLOSE
Current Station
Personal Weather Station
Location: Yellowstone National Park, WY
Elevation: 7350 ft
Nearby Weather Stations

Elev 7350 ft 44.46 °N, 110.82 °W | Updated 1 hour ago

Overcast
Overcast
-1.0 °F
Feels Like -1.0 °F
N
7
Wind Variable Wind from NNE
Gusts 9 mph

Today
High -- | Low -- °F
--% Chance of Precip.
Yesterday
High -- | Low -- °F
Precip. -- in
7:58 AM 4:46 PM
Waxing Crescent, 23% visible
Pressure 30.03 in
Visibility -9999.0 miles
Clouds
Dew Point -8 °F
Humidity 91%
Rainfall -999.00 in
Snow Depth Not available.
UV Not available.
Pollen .10 out of 12
Air Quality Not available.
Flu Activity Not available.
METAR KP60 260756Z AUTO VRB04KT M14/M17 A2982 RMK AO1 SLP168 T11441172

More Conditions Fewer Conditions

Pressure 30.03 in
Visibility -9999.0 miles
Clouds
Dew Point -8 °F
Humidity 91%
Rainfall -999.00 in
Snow Depth Not available.
UV Not available.
Pollen .10 out of 12
Air Quality Not available.
Flu Activity Not available.
METAR KP60 260756Z AUTO VRB04KT M14/M17 A2982 RMK AO1 SLP168 T11441172

More Conditions Fewer Conditions

10-Day Weather Forecast

Almanac

Astronomy

Dec. 26, 2014 Rise Set
Actual Time
Civil Twilight
Nautical Twilight
Astronomical Twilight
Moon
Length of Visible Light
Length of Day
Tomorrow will be .
, % of the Moon is Illuminated

Today's Extremes

State Highs State Lows

Community

WunderPhotos

Upload Photos

1,780,571 photos uploaded!

WunderBlogs® & News

Nearby

Air Quality

  Air Quality AQ Index Pollutant
Not available.

Snow Depth

Station Depth Elevation

Earthquake Activity

City Distance Mag. Time & Date
Minimum magnitude displayed is 2.5.

Coastal Water Temperatures

Place Temperature

Nearby Weather Stations